sensor_id;sensor_type;location;lat;lon;timestamp;P1;durP1;ratioP1;P2;durP2;ratioP2
58874;SDS011;44652;49.040;12.126;2023-10-09T15:27:40;6.82;;;1.65;;
58874;SDS011;44652;49.040;12.126;2023-10-09T15:30:08;6.13;;;1.90;;
58874;SDS011;44652;49.040;12.126;2023-10-09T15:32:40;2.67;;;1.08;;
58874;SDS011;44652;49.040;12.126;2023-10-09T15:35:08;4.22;;;1.65;;
58874;SDS011;44652;49.040;12.126;2023-10-09T15:37:40;9.75;;;2.20;;
58874;SDS011;44652;49.040;12.126;2023-10-09T15:40:09;4.82;;;1.75;;
58874;SDS011;44652;49.040;12.126;2023-10-09T15:42:50;2.88;;;1.25;;
58874;SDS011;44652;49.040;12.126;2023-10-09T15:45:17;4.40;;;2.08;;
58874;SDS011;44652;49.040;12.126;2023-10-09T15:47:48;7.32;;;2.03;;
58874;SDS011;44652;49.040;12.126;2023-10-09T15:50:18;4.13;;;1.50;;
58874;SDS011;44652;49.040;12.126;2023-10-09T15:52:45;5.20;;;1.25;;
58874;SDS011;44652;49.040;12.126;2023-10-09T15:55:15;5.32;;;2.00;;
58874;SDS011;44652;49.040;12.126;2023-10-09T15:57:47;12.40;;;1.80;;
58874;SDS011;44652;49.040;12.126;2023-10-09T16:00:25;4.47;;;1.60;;
58874;SDS011;44652;49.040;12.126;2023-10-09T16:02:55;4.88;;;1.50;;
58874;SDS011;44652;49.040;12.126;2023-10-09T16:05:23;5.13;;;1.75;;
58874;SDS011;44652;49.040;12.126;2023-10-09T16:07:52;7.13;;;2.20;;
58874;SDS011;44652;49.040;12.126;2023-10-09T16:10:20;5.90;;;2.13;;
58874;SDS011;44652;49.040;12.126;2023-10-09T16:12:47;3.38;;;1.08;;
58874;SDS011;44652;49.040;12.126;2023-10-09T16:15:17;5.05;;;1.50;;
58874;SDS011;44652;49.040;12.126;2023-10-09T16:17:47;5.05;;;1.63;;
58874;SDS011;44652;49.040;12.126;2023-10-09T16:20:14;9.27;;;1.90;;
58874;SDS011;44652;49.040;12.126;2023-10-09T16:22:48;3.25;;;1.35;;
58874;SDS011;44652;49.040;12.126;2023-10-09T16:25:16;4.03;;;1.45;;
58874;SDS011;44652;49.040;12.126;2023-10-09T16:27:47;6.40;;;1.58;;
58874;SDS011;44652;49.040;12.126;2023-10-09T16:30:18;4.93;;;1.65;;
58874;SDS011;44652;49.040;12.126;2023-10-09T16:32:47;4.60;;;1.58;;
58874;SDS011;44652;49.040;12.126;2023-10-09T16:35:14;5.78;;;1.83;;
58874;SDS011;44652;49.040;12.126;2023-10-09T16:37:41;7.68;;;2.42;;
58874;SDS011;44652;49.040;12.126;2023-10-09T16:40:08;4.18;;;1.63;;
58874;SDS011;44652;49.040;12.126;2023-10-09T16:42:39;3.92;;;1.88;;
58874;SDS011;44652;49.040;12.126;2023-10-09T16:45:09;5.28;;;1.77;;
58874;SDS011;44652;49.040;12.126;2023-10-09T16:47:48;7.53;;;1.65;;
58874;SDS011;44652;49.040;12.126;2023-10-09T16:50:18;7.05;;;2.20;;
58874;SDS011;44652;49.040;12.126;2023-10-09T16:55:13;7.53;;;2.15;;
58874;SDS011;44652;49.040;12.126;2023-10-09T16:57:41;3.95;;;1.98;;
58874;SDS011;44652;49.040;12.126;2023-10-09T17:00:11;5.85;;;1.27;;
58874;SDS011;44652;49.040;12.126;2023-10-09T17:03:02;3.47;;;1.33;;
58874;SDS011;44652;49.040;12.126;2023-10-09T17:05:33;4.65;;;1.70;;
58874;SDS011;44652;49.040;12.126;2023-10-09T17:08:04;6.60;;;1.80;;
58874;SDS011;44652;49.040;12.126;2023-10-09T17:10:36;5.68;;;2.15;;
58874;SDS011;44652;49.040;12.126;2023-10-09T17:13:11;6.45;;;1.85;;
58874;SDS011;44652;49.040;12.126;2023-10-09T17:15:39;10.80;;;1.98;;
58874;SDS011;44652;49.040;12.126;2023-10-09T17:18:06;4.97;;;2.20;;
58874;SDS011;44652;49.040;12.126;2023-10-09T17:20:39;5.50;;;1.77;;
58874;SDS011;44652;49.040;12.126;2023-10-09T17:23:06;7.20;;;1.60;;
58874;SDS011;44652;49.040;12.126;2023-10-09T17:25:43;5.32;;;1.40;;
58874;SDS011;44652;49.040;12.126;2023-10-09T17:28:36;2.90;;;1.45;;
58874;SDS011;44652;49.040;12.126;2023-10-09T17:31:06;10.23;;;2.45;;
58874;SDS011;44652;49.040;12.126;2023-10-09T17:33:33;4.15;;;1.45;;
58874;SDS011;44652;49.040;12.126;2023-10-09T17:36:01;7.47;;;1.80;;
58874;SDS011;44652;49.040;12.126;2023-10-09T17:38:31;6.43;;;2.03;;
58874;SDS011;44652;49.040;12.126;2023-10-09T17:40:59;5.22;;;1.88;;
58874;SDS011;44652;49.040;12.126;2023-10-09T17:43:28;4.45;;;1.98;;
58874;SDS011;44652;49.040;12.126;2023-10-09T17:45:57;5.97;;;1.50;;
58874;SDS011;44652;49.040;12.126;2023-10-09T17:48:30;6.78;;;1.75;;
58874;SDS011;44652;49.040;12.126;2023-10-09T17:50:57;6.07;;;2.17;;
58874;SDS011;44652;49.040;12.126;2023-10-09T17:53:24;3.92;;;1.70;;
58874;SDS011;44652;49.040;12.126;2023-10-09T17:55:51;7.60;;;2.17;;
58874;SDS011;44652;49.040;12.126;2023-10-09T17:58:19;7.45;;;2.40;;
58874;SDS011;44652;49.040;12.126;2023-10-09T18:00:52;5.53;;;2.17;;
58874;SDS011;44652;49.040;12.126;2023-10-09T18:03:20;4.22;;;1.55;;
58874;SDS011;44652;49.040;12.126;2023-10-09T18:05:47;9.30;;;2.63;;
58874;SDS011;44652;49.040;12.126;2023-10-09T18:08:13;6.05;;;2.05;;
58874;SDS011;44652;49.040;12.126;2023-10-09T18:10:41;7.70;;;2.28;;
58874;SDS011;44652;49.040;12.126;2023-10-09T18:13:12;4.88;;;1.83;;
58874;SDS011;44652;49.040;12.126;2023-10-09T18:15:46;6.75;;;1.73;;
58874;SDS011;44652;49.040;12.126;2023-10-09T18:18:14;4.90;;;2.15;;
58874;SDS011;44652;49.040;12.126;2023-10-09T18:20:47;5.82;;;2.83;;
58874;SDS011;44652;49.040;12.126;2023-10-09T18:23:15;13.45;;;3.10;;
58874;SDS011;44652;49.040;12.126;2023-10-09T18:25:47;6.00;;;2.83;;
58874;SDS011;44652;49.040;12.126;2023-10-09T18:28:16;5.85;;;2.65;;
58874;SDS011;44652;49.040;12.126;2023-10-09T18:30:44;5.70;;;2.58;;
58874;SDS011;44652;49.040;12.126;2023-10-09T18:33:15;5.25;;;2.33;;
58874;SDS011;44652;49.040;12.126;2023-10-09T18:35:43;6.63;;;2.40;;
58874;SDS011;44652;49.040;12.126;2023-10-09T18:38:10;7.55;;;2.67;;
58874;SDS011;44652;49.040;12.126;2023-10-09T18:40:42;6.63;;;1.95;;
58874;SDS011;44652;49.040;12.126;2023-10-09T18:43:14;6.38;;;2.35;;
58874;SDS011;44652;49.040;12.126;2023-10-09T18:45:41;8.57;;;2.72;;
58874;SDS011;44652;49.040;12.126;2023-10-09T18:48:09;6.72;;;3.03;;
58874;SDS011;44652;49.040;12.126;2023-10-09T18:50:44;11.88;;;3.58;;
58874;SDS011;44652;49.040;12.126;2023-10-09T18:53:11;9.65;;;4.07;;
58874;SDS011;44652;49.040;12.126;2023-10-09T18:55:39;7.95;;;3.35;;
58874;SDS011;44652;49.040;12.126;2023-10-09T18:58:07;12.38;;;3.22;;
58874;SDS011;44652;49.040;12.126;2023-10-09T19:00:36;9.00;;;3.38;;
58874;SDS011;44652;49.040;12.126;2023-10-09T19:03:07;6.15;;;2.60;;
58874;SDS011;44652;49.040;12.126;2023-10-09T19:05:40;6.05;;;2.70;;
58874;SDS011;44652;49.040;12.126;2023-10-09T19:08:09;6.95;;;2.95;;
58874;SDS011;44652;49.040;12.126;2023-10-09T19:10:36;9.15;;;2.90;;
58874;SDS011;44652;49.040;12.126;2023-10-09T19:13:04;8.50;;;3.55;;
58874;SDS011;44652;49.040;12.126;2023-10-09T19:15:33;11.48;;;3.55;;
58874;SDS011;44652;49.040;12.126;2023-10-09T19:18:01;5.80;;;2.75;;
58874;SDS011;44652;49.040;12.126;2023-10-09T19:20:29;5.45;;;2.42;;
58874;SDS011;44652;49.040;12.126;2023-10-09T19:22:59;6.72;;;2.83;;
58874;SDS011;44652;49.040;12.126;2023-10-09T19:25:25;5.50;;;2.78;;
58874;SDS011;44652;49.040;12.126;2023-10-09T19:27:54;3.88;;;1.77;;
58874;SDS011;44652;49.040;12.126;2023-10-09T19:30:21;5.18;;;1.95;;
58874;SDS011;44652;49.040;12.126;2023-10-09T19:32:48;7.28;;;2.10;;
58874;SDS011;44652;49.040;12.126;2023-10-09T19:35:15;5.40;;;2.58;;
58874;SDS011;44652;49.040;12.126;2023-10-09T19:37:48;12.25;;;3.40;;
58874;SDS011;44652;49.040;12.126;2023-10-09T19:40:17;7.80;;;3.03;;
58874;SDS011;44652;49.040;12.126;2023-10-09T19:42:44;9.32;;;3.50;;
58874;SDS011;44652;49.040;12.126;2023-10-09T19:45:11;6.20;;;2.90;;
58874;SDS011;44652;49.040;12.126;2023-10-09T19:47:40;7.05;;;3.20;;
58874;SDS011;44652;49.040;12.126;2023-10-09T19:52:34;9.20;;;3.65;;
58874;SDS011;44652;49.040;12.126;2023-10-09T19:55:01;13.45;;;3.90;;
58874;SDS011;44652;49.040;12.126;2023-10-09T19:57:28;14.43;;;3.97;;
58874;SDS011;44652;49.040;12.126;2023-10-09T19:59:57;7.72;;;3.30;;
58874;SDS011;44652;49.040;12.126;2023-10-09T20:02:24;8.82;;;3.40;;
58874;SDS011;44652;49.040;12.126;2023-10-09T20:04:52;8.45;;;3.13;;
58874;SDS011;44652;49.040;12.126;2023-10-09T20:07:19;10.38;;;3.00;;
58874;SDS011;44652;49.040;12.126;2023-10-09T20:09:46;3.80;;;1.98;;
58874;SDS011;44652;49.040;12.126;2023-10-09T20:12:13;6.97;;;2.38;;
58874;SDS011;44652;49.040;12.126;2023-10-09T20:14:40;6.38;;;2.55;;
58874;SDS011;44652;49.040;12.126;2023-10-09T20:17:09;6.95;;;2.05;;
58874;SDS011;44652;49.040;12.126;2023-10-09T20:19:38;6.40;;;2.95;;
58874;SDS011;44652;49.040;12.126;2023-10-09T20:22:06;9.60;;;2.97;;
58874;SDS011;44652;49.040;12.126;2023-10-09T20:24:33;6.50;;;2.53;;
58874;SDS011;44652;49.040;12.126;2023-10-09T20:27:00;6.47;;;2.28;;
58874;SDS011;44652;49.040;12.126;2023-10-09T20:29:27;4.35;;;2.05;;
58874;SDS011;44652;49.040;12.126;2023-10-09T20:31:54;6.78;;;2.80;;
58874;SDS011;44652;49.040;12.126;2023-10-09T20:34:21;8.20;;;3.00;;
